Time,TemperatureF,DewpointF,PressureIn,WindDirection,WindDirectionDegrees,WindSpeedMPH,WindSpeedGustMPH,Humidity,HourlyPrecipIn,Conditions,Clouds,dailyrainin,SolarRadiationWatts/m^2,SoftwareType,DateUTC
2013-02-07 00:01:00,27.0,12.0,-100.00,West,269,7.0,14.0,53,0.00,,,0.00,0.000000,,2013-02-07 07:01:00,
2013-02-07 00:11:00,27.0,12.0,-100.00,West,269,7.0,14.0,53,0.00,,,0.00,0.000000,,2013-02-07 07:11:00,
2013-02-07 00:22:00,27.0,12.0,-100.00,West,269,7.0,14.0,53,0.00,,,0.00,0.000000,,2013-02-07 07:22:00,
2013-02-07 00:32:00,27.0,12.0,-100.00,West,269,7.0,14.0,53,0.00,,,0.00,0.000000,,2013-02-07 07:32:00,
2013-02-07 00:52:00,25.0,15.0,-100.00,WNW,300,7.0,14.0,66,0.00,,,0.00,0.000000,,2013-02-07 07:52:00,
2013-02-07 01:01:00,25.0,15.0,-100.00,WNW,300,7.0,14.0,66,0.00,,,0.00,0.000000,,2013-02-07 08:01:00,
2013-02-07 01:11:00,25.0,15.0,-100.00,WNW,300,7.0,14.0,66,0.00,,,0.00,0.000000,,2013-02-07 08:11:00,
2013-02-07 01:21:00,25.0,15.0,-100.00,WNW,300,7.0,14.0,66,0.00,,,0.00,0.000000,,2013-02-07 08:21:00,
2013-02-07 01:32:00,25.0,15.0,-100.00,WNW,300,7.0,14.0,66,0.00,,,0.00,0.000000,,2013-02-07 08:32:00,
2013-02-07 01:52:00,24.0,15.0,-100.00,NW,304,5.0,18.0,69,0.00,,,0.00,0.000000,,2013-02-07 08:52:00,
2013-02-07 02:02:00,24.0,15.0,-100.00,NW,304,5.0,18.0,69,0.00,,,0.00,0.000000,,2013-02-07 09:02:00,
2013-02-07 02:11:00,24.0,15.0,-100.00,NW,304,5.0,18.0,69,0.00,,,0.00,0.000000,,2013-02-07 09:11:00,
2013-02-07 02:21:00,24.0,15.0,-100.00,NW,304,5.0,18.0,69,0.00,,,0.00,0.000000,,2013-02-07 09:21:00,
2013-02-07 02:32:00,24.0,15.0,-100.00,NW,304,5.0,18.0,69,0.00,,,0.00,0.000000,,2013-02-07 09:32:00,
2013-02-07 02:52:00,23.0,12.0,-100.00,WSW,241,4.0,14.0,63,0.00,,,0.00,0.000000,,2013-02-07 09:52:00,
2013-02-07 03:02:00,23.0,12.0,-100.00,WSW,241,4.0,14.0,63,0.00,,,0.00,0.000000,,2013-02-07 10:02:00,
2013-02-07 03:11:00,23.0,12.0,-100.00,WSW,241,4.0,14.0,63,0.00,,,0.00,0.000000,,2013-02-07 10:11:00,
2013-02-07 03:22:00,23.0,12.0,-100.00,WSW,241,4.0,14.0,63,0.00,,,0.00,0.000000,,2013-02-07 10:22:00,
2013-02-07 03:32:00,23.0,12.0,-100.00,WSW,241,4.0,14.0,63,0.00,,,0.00,0.000000,,2013-02-07 10:32:00,
2013-02-07 03:52:00,21.0,11.0,-100.00,West,269,7.0,11.0,66,0.00,,,0.00,0.000000,,2013-02-07 10:52:00,
2013-02-07 04:01:00,21.0,11.0,-100.00,West,269,7.0,11.0,66,0.00,,,0.00,0.000000,,2013-02-07 11:01:00,
2013-02-07 04:11:00,21.0,11.0,-100.00,West,269,7.0,11.0,66,0.00,,,0.00,0.000000,,2013-02-07 11:11:00,
2013-02-07 04:22:00,21.0,11.0,-100.00,West,269,7.0,11.0,66,0.00,,,0.00,0.000000,,2013-02-07 11:22:00,
2013-02-07 04:32:00,21.0,11.0,-100.00,West,269,7.0,11.0,66,0.00,,,0.00,0.000000,,2013-02-07 11:32:00,
2013-02-07 04:53:00,20.0,8.0,-100.00,SW,225,4.0,11.0,60,0.00,,,0.00,0.000000,,2013-02-07 11:53:00,
2013-02-07 05:02:00,20.0,8.0,-100.00,SW,225,4.0,11.0,60,0.00,,,0.00,0.000000,,2013-02-07 12:02:00,
2013-02-07 05:11:00,20.0,8.0,-100.00,SW,225,4.0,11.0,60,0.00,,,0.00,0.000000,,2013-02-07 12:11:00,
2013-02-07 05:22:00,20.0,8.0,-100.00,SW,225,4.0,11.0,60,0.00,,,0.00,0.000000,,2013-02-07 12:22:00,
2013-02-07 05:32:00,20.0,8.0,-100.00,SW,225,4.0,11.0,60,0.00,,,0.00,0.000000,,2013-02-07 12:32:00,
2013-02-07 05:53:00,20.0,7.0,-100.00,WSW,240,5.0,9.0,57,0.00,,,0.00,0.000000,,2013-02-07 12:53:00,
2013-02-07 06:03:00,20.0,7.0,-100.00,WSW,240,5.0,9.0,57,0.00,,,0.00,0.000000,,2013-02-07 13:03:00,
2013-02-07 06:12:00,20.0,7.0,-100.00,WSW,240,5.0,9.0,57,0.00,,,0.00,0.000000,,2013-02-07 13:12:00,
2013-02-07 06:22:00,20.0,7.0,-100.00,WSW,240,5.0,9.0,57,0.00,,,0.00,0.000000,,2013-02-07 13:22:00,
2013-02-07 06:32:00,20.0,7.0,-100.00,WSW,240,5.0,9.0,57,0.00,,,0.00,0.000000,,2013-02-07 13:32:00,
2013-02-07 06:52:00,17.0,6.0,-100.00,WSW,237,6.0,11.0,61,0.00,,,-99.99,0.000000,,2013-02-07 13:52:00,
2013-02-07 07:01:00,17.0,6.0,-100.00,WSW,237,6.0,11.0,61,0.00,,,-99.99,0.000000,,2013-02-07 14:01:00,
2013-02-07 07:11:00,17.0,6.0,-100.00,WSW,237,6.0,11.0,61,0.00,,,-99.99,0.000000,,2013-02-07 14:11:00,
2013-02-07 07:22:00,17.0,6.0,-100.00,WSW,237,6.0,11.0,61,0.00,,,-99.99,0.000000,,2013-02-07 14:22:00,
2013-02-07 07:32:00,17.0,6.0,-100.00,WSW,237,6.0,11.0,61,0.00,,,-99.99,0.000000,,2013-02-07 14:32:00,
2013-02-07 07:52:00,17.0,5.0,-100.00,West,281,3.0,11.0,58,0.00,,,0.00,5.000000,,2013-02-07 14:52:00,
2013-02-07 08:02:00,17.0,5.0,-100.00,West,281,3.0,11.0,58,0.00,,,0.00,5.000000,,2013-02-07 15:02:00,
2013-02-07 08:11:00,17.0,5.0,-100.00,West,281,3.0,11.0,58,0.00,,,0.00,5.000000,,2013-02-07 15:11:00,
2013-02-07 08:22:00,17.0,5.0,-100.00,West,281,3.0,11.0,58,0.00,,,0.00,5.000000,,2013-02-07 15:22:00,
2013-02-07 08:32:00,17.0,5.0,-100.00,West,281,3.0,11.0,58,0.00,,,0.00,5.000000,,2013-02-07 15:32:00,
2013-02-07 08:52:00,17.0,4.0,-100.00,WSW,254,3.0,8.0,57,0.00,,,0.00,24.000000,,2013-02-07 15:52:00,
2013-02-07 09:01:00,17.0,4.0,-100.00,WSW,254,3.0,8.0,57,0.00,,,0.00,24.000000,,2013-02-07 16:01:00,
2013-02-07 09:11:00,17.0,4.0,-100.00,WSW,254,3.0,8.0,57,0.00,,,0.00,24.000000,,2013-02-07 16:11:00,
2013-02-07 09:21:00,17.0,4.0,-100.00,WSW,254,3.0,8.0,57,0.00,,,0.00,24.000000,,2013-02-07 16:21:00,
2013-02-07 09:32:00,17.0,4.0,-100.00,WSW,254,3.0,8.0,57,0.00,,,0.00,24.000000,,2013-02-07 16:32:00,
2013-02-07 09:52:00,22.0,6.0,-100.00,WSW,253,4.0,5.0,50,0.00,,,0.00,206.000000,,2013-02-07 16:52:00,
2013-02-07 10:01:00,22.0,6.0,-100.00,WSW,253,4.0,5.0,50,0.00,,,0.00,206.000000,,2013-02-07 17:01:00,
2013-02-07 10:11:00,22.0,6.0,-100.00,WSW,253,4.0,5.0,50,0.00,,,0.00,206.000000,,2013-02-07 17:11:00,
2013-02-07 10:21:00,22.0,6.0,-100.00,WSW,253,4.0,5.0,50,0.00,,,0.00,206.000000,,2013-02-07 17:21:00,
2013-02-07 10:32:00,22.0,6.0,-100.00,WSW,253,4.0,5.0,50,0.00,,,0.00,206.000000,,2013-02-07 17:32:00,
2013-02-07 10:52:00,27.0,8.0,-100.00,West,265,4.0,6.0,44,0.00,,,0.00,529.000000,,2013-02-07 17:52:00,
2013-02-07 11:01:00,27.0,8.0,-100.00,West,265,4.0,6.0,44,0.00,,,0.00,529.000000,,2013-02-07 18:01:00,
2013-02-07 11:11:00,27.0,8.0,-100.00,West,265,4.0,6.0,44,0.00,,,0.00,529.000000,,2013-02-07 18:11:00,
2013-02-07 11:23:00,27.0,8.0,-100.00,West,265,4.0,6.0,44,0.00,,,0.00,529.000000,,2013-02-07 18:23:00,
2013-02-07 11:32:00,27.0,8.0,-100.00,West,265,4.0,6.0,44,0.00,,,0.00,529.000000,,2013-02-07 18:32:00,
2013-02-07 11:52:00,33.0,7.0,-100.00,WNW,291,3.0,8.0,33,0.00,,,0.00,640.000000,,2013-02-07 18:52:00,
2013-02-07 12:01:00,33.0,7.0,-100.00,WNW,291,3.0,8.0,33,0.00,,,0.00,640.000000,,2013-02-07 19:01:00,
2013-02-07 12:11:00,33.0,7.0,-100.00,WNW,291,3.0,8.0,33,0.00,,,0.00,640.000000,,2013-02-07 19:11:00,
2013-02-07 12:22:00,33.0,7.0,-100.00,WNW,291,3.0,8.0,33,0.00,,,0.00,640.000000,,2013-02-07 19:22:00,
2013-02-07 12:32:00,33.0,7.0,-100.00,WNW,291,3.0,8.0,33,0.00,,,0.00,640.000000,,2013-02-07 19:32:00,
2013-02-07 12:52:00,35.0,0.0,-100.00,NNW,330,4.0,6.0,22,0.00,,,0.00,691.000000,,2013-02-07 19:52:00,
2013-02-07 13:52:00,38.0,-5.0,-100.00,NW,316,4.0,7.0,15,0.00,,,0.00,674.000000,,2013-02-07 20:52:00,
2013-02-07 14:02:00,38.0,-5.0,-100.00,NW,316,4.0,7.0,15,0.00,,,0.00,674.000000,,2013-02-07 21:02:00,
2013-02-07 14:52:00,41.0,-13.0,-100.00,West,264,7.0,12.0,9,0.00,,,-99.99,594.000000,,2013-02-07 21:52:00,
2013-02-07 15:02:00,41.0,-13.0,-100.00,West,264,7.0,12.0,9,0.00,,,-99.99,594.000000,,2013-02-07 22:02:00,
2013-02-07 15:52:00,39.0,3.0,-100.00,West,266,6.0,13.0,22,0.00,,,0.00,455.000000,,2013-02-07 22:52:00,
2013-02-07 16:01:00,39.0,3.0,-100.00,West,266,6.0,13.0,22,0.00,,,0.00,455.000000,,2013-02-07 23:01:00,
2013-02-07 16:11:00,39.0,3.0,-100.00,West,266,6.0,13.0,22,0.00,,,0.00,455.000000,,2013-02-07 23:11:00,
2013-02-07 16:21:00,39.0,3.0,-100.00,West,266,6.0,13.0,22,0.00,,,0.00,455.000000,,2013-02-07 23:21:00,
2013-02-07 16:32:00,39.0,3.0,-100.00,West,266,6.0,13.0,22,0.00,,,0.00,455.000000,,2013-02-07 23:32:00,
2013-02-07 16:52:00,37.0,4.0,-100.00,SW,229,8.0,15.0,25,0.00,,,0.00,274.000000,,2013-02-07 23:52:00,
2013-02-07 17:01:00,37.0,4.0,-100.00,SW,229,8.0,15.0,25,0.00,,,0.00,274.000000,,2013-02-08 00:01:00,
2013-02-07 17:11:00,37.0,4.0,-100.00,SW,229,8.0,15.0,25,0.00,,,0.00,274.000000,,2013-02-08 00:11:00,
2013-02-07 17:21:00,37.0,4.0,-100.00,SW,229,8.0,15.0,25,0.00,,,0.00,274.000000,,2013-02-08 00:21:00,
2013-02-07 17:32:00,37.0,4.0,-100.00,SW,229,8.0,15.0,25,0.00,,,0.00,274.000000,,2013-02-08 00:32:00,
2013-02-07 18:52:00,30.0,-4.0,-100.00,ESE,106,4.0,15.0,22,0.00,,,0.00,1.000000,,2013-02-08 01:52:00,
2013-02-07 19:01:00,30.0,-4.0,-100.00,ESE,106,4.0,15.0,22,0.00,,,0.00,1.000000,,2013-02-08 02:01:00,
2013-02-07 19:52:00,29.0,-6.0,-100.00,South,175,3.0,8.0,21,0.00,,,0.00,0.000000,,2013-02-08 02:52:00,
2013-02-07 20:02:00,29.0,-6.0,-100.00,South,175,3.0,8.0,21,0.00,,,0.00,0.000000,,2013-02-08 03:02:00,
2013-02-07 20:52:00,27.0,-6.0,-100.00,South,178,2.0,10.0,23,0.00,,,0.00,0.000000,,2013-02-08 03:52:00,
2013-02-07 21:02:00,27.0,-6.0,-100.00,South,178,2.0,10.0,23,0.00,,,0.00,0.000000,,2013-02-08 04:02:00,
2013-02-07 21:52:00,27.0,-9.0,-100.00,SE,139,6.0,10.0,20,0.00,,,0.00,0.000000,,2013-02-08 04:52:00,
2013-02-07 22:52:00,27.0,2.0,-100.00,SE,128,4.0,12.0,34,0.00,,,0.00,0.000000,,2013-02-08 05:52:00,
2013-02-07 23:01:00,27.0,2.0,-100.00,SE,128,4.0,12.0,34,0.00,,,0.00,0.000000,,2013-02-08 06:01:00,
2013-02-07 23:11:00,27.0,2.0,-100.00,SE,128,4.0,12.0,34,0.00,,,0.00,0.000000,,2013-02-08 06:11:00,
2013-02-07 23:21:00,27.0,2.0,-100.00,SE,128,4.0,12.0,34,0.00,,,0.00,0.000000,,2013-02-08 06:21:00,
2013-02-07 23:31:00,27.0,2.0,-100.00,SE,128,4.0,12.0,34,0.00,,,0.00,0.000000,,2013-02-08 06:31:00,
2013-02-07 23:52:00,28.0,3.0,-100.00,SW,217,7.0,23.0,33,0.00,,,0.00,0.000000,,2013-02-08 06:52:00,